sensor_id;sensor_type;location;lat;lon;timestamp;P1;durP1;ratioP1;P2;durP2;ratioP2
21901;SDS011;11115;46.038;14.612;2023-04-09T00:01:35;1.20;;;1.10;;
21901;SDS011;11115;46.038;14.612;2023-04-09T00:04:11;1.80;;;1.20;;
21901;SDS011;11115;46.038;14.612;2023-04-09T00:06:49;3.03;;;1.53;;
21901;SDS011;11115;46.038;14.612;2023-04-09T00:09:22;3.97;;;1.53;;
21901;SDS011;11115;46.038;14.612;2023-04-09T00:11:52;3.63;;;1.77;;
21901;SDS011;11115;46.038;14.612;2023-04-09T00:14:23;5.67;;;2.50;;
21901;SDS011;11115;46.038;14.612;2023-04-09T00:16:54;5.13;;;2.60;;
21901;SDS011;11115;46.038;14.612;2023-04-09T00:19:23;3.17;;;1.90;;
21901;SDS011;11115;46.038;14.612;2023-04-09T00:21:54;3.63;;;2.53;;
21901;SDS011;11115;46.038;14.612;2023-04-09T00:24:25;1.85;;;1.55;;
21901;SDS011;11115;46.038;14.612;2023-04-09T00:26:56;2.93;;;1.70;;
21901;SDS011;11115;46.038;14.612;2023-04-09T00:29:29;2.03;;;1.43;;
21901;SDS011;11115;46.038;14.612;2023-04-09T00:32:02;2.67;;;1.30;;
21901;SDS011;11115;46.038;14.612;2023-04-09T00:34:34;1.33;;;1.13;;
21901;SDS011;11115;46.038;14.612;2023-04-09T00:37:10;3.90;;;2.00;;
21901;SDS011;11115;46.038;14.612;2023-04-09T00:39:44;1.30;;;1.20;;
21901;SDS011;11115;46.038;14.612;2023-04-09T00:42:16;1.83;;;0.93;;
21901;SDS011;11115;46.038;14.612;2023-04-09T00:44:46;2.93;;;1.20;;
21901;SDS011;11115;46.038;14.612;2023-04-09T00:47:20;1.17;;;1.10;;
21901;SDS011;11115;46.038;14.612;2023-04-09T00:49:53;2.47;;;1.10;;
21901;SDS011;11115;46.038;14.612;2023-04-09T00:52:26;1.43;;;1.13;;
21901;SDS011;11115;46.038;14.612;2023-04-09T00:55:11;1.40;;;1.10;;
21901;SDS011;11115;46.038;14.612;2023-04-09T00:57:46;2.13;;;1.27;;
21901;SDS011;11115;46.038;14.612;2023-04-09T01:00:22;0.90;;;0.90;;
21901;SDS011;11115;46.038;14.612;2023-04-09T01:02:54;3.50;;;1.50;;
21901;SDS011;11115;46.038;14.612;2023-04-09T01:05:49;2.97;;;1.60;;
21901;SDS011;11115;46.038;14.612;2023-04-09T01:15:21;2.60;;;1.27;;
21901;SDS011;11115;46.038;14.612;2023-04-09T01:18:22;4.33;;;1.63;;
21901;SDS011;11115;46.038;14.612;2023-04-09T01:21:08;1.50;;;1.20;;
21901;SDS011;11115;46.038;14.612;2023-04-09T01:28:21;3.33;;;1.70;;
21901;SDS011;11115;46.038;14.612;2023-04-09T01:30:40;1.30;;;1.10;;
21901;SDS011;11115;46.038;14.612;2023-04-09T01:33:22;2.22;;;1.60;;
21901;SDS011;11115;46.038;14.612;2023-04-09T01:35:57;1.90;;;1.00;;
21901;SDS011;11115;46.038;14.612;2023-04-09T01:38:35;1.20;;;1.10;;
21901;SDS011;11115;46.038;14.612;2023-04-09T01:41:11;2.47;;;1.30;;
21901;SDS011;11115;46.038;14.612;2023-04-09T01:43:49;2.90;;;1.80;;
21901;SDS011;11115;46.038;14.612;2023-04-09T01:46:20;0.80;;;0.70;;
21901;SDS011;11115;46.038;14.612;2023-04-09T01:49:08;1.90;;;1.40;;
21901;SDS011;11115;46.038;14.612;2023-04-09T01:51:46;2.13;;;1.30;;
21901;SDS011;11115;46.038;14.612;2023-04-09T01:54:18;1.13;;;1.03;;
21901;SDS011;11115;46.038;14.612;2023-04-09T01:59:27;2.87;;;1.13;;
21901;SDS011;11115;46.038;14.612;2023-04-09T02:02:08;2.50;;;1.30;;
21901;SDS011;11115;46.038;14.612;2023-04-09T02:05:00;0.93;;;0.93;;
21901;SDS011;11115;46.038;14.612;2023-04-09T02:07:41;1.87;;;1.13;;
21901;SDS011;11115;46.038;14.612;2023-04-09T02:10:25;1.23;;;1.13;;
21901;SDS011;11115;46.038;14.612;2023-04-09T02:13:00;1.23;;;1.13;;
21901;SDS011;11115;46.038;14.612;2023-04-09T02:15:36;7.00;;;1.30;;
21901;SDS011;11115;46.038;14.612;2023-04-09T02:18:19;3.58;;;1.42;;
21901;SDS011;11115;46.038;14.612;2023-04-09T02:20:56;3.77;;;1.10;;
21901;SDS011;11115;46.038;14.612;2023-04-09T02:23:28;5.22;;;1.58;;
21901;SDS011;11115;46.038;14.612;2023-04-09T02:26:01;1.87;;;1.37;;
21901;SDS011;11115;46.038;14.612;2023-04-09T02:28:31;2.15;;;1.45;;
21901;SDS011;11115;46.038;14.612;2023-04-09T02:31:17;2.03;;;1.43;;
21901;SDS011;11115;46.038;14.612;2023-04-09T02:33:53;2.33;;;1.40;;
21901;SDS011;11115;46.038;14.612;2023-04-09T02:36:22;3.13;;;1.80;;
21901;SDS011;11115;46.038;14.612;2023-04-09T02:38:55;1.70;;;1.43;;
21901;SDS011;11115;46.038;14.612;2023-04-09T02:41:25;1.90;;;1.17;;
21901;SDS011;11115;46.038;14.612;2023-04-09T02:44:00;1.80;;;1.37;;
21901;SDS011;11115;46.038;14.612;2023-04-09T02:46:32;2.80;;;1.33;;
21901;SDS011;11115;46.038;14.612;2023-04-09T02:49:05;1.43;;;1.20;;
21901;SDS011;11115;46.038;14.612;2023-04-09T02:51:35;1.83;;;1.33;;
21901;SDS011;11115;46.038;14.612;2023-04-09T02:54:07;2.47;;;1.73;;
21901;SDS011;11115;46.038;14.612;2023-04-09T02:56:44;1.37;;;1.10;;
21901;SDS011;11115;46.038;14.612;2023-04-09T02:59:13;2.87;;;1.40;;
21901;SDS011;11115;46.038;14.612;2023-04-09T03:01:57;2.37;;;1.20;;
21901;SDS011;11115;46.038;14.612;2023-04-09T03:04:39;2.15;;;1.55;;
21901;SDS011;11115;46.038;14.612;2023-04-09T03:07:24;2.40;;;1.73;;
21901;SDS011;11115;46.038;14.612;2023-04-09T03:10:08;2.37;;;1.33;;
21901;SDS011;11115;46.038;14.612;2023-04-09T03:12:40;2.13;;;1.53;;
21901;SDS011;11115;46.038;14.612;2023-04-09T03:15:11;2.00;;;1.30;;
21901;SDS011;11115;46.038;14.612;2023-04-09T03:17:42;2.92;;;1.77;;
21901;SDS011;11115;46.038;14.612;2023-04-09T03:20:15;2.80;;;1.50;;
21901;SDS011;11115;46.038;14.612;2023-04-09T03:22:51;2.33;;;1.33;;
21901;SDS011;11115;46.038;14.612;2023-04-09T03:25:39;2.17;;;1.53;;
21901;SDS011;11115;46.038;14.612;2023-04-09T03:28:17;3.53;;;1.60;;
21901;SDS011;11115;46.038;14.612;2023-04-09T03:30:53;1.57;;;1.17;;
21901;SDS011;11115;46.038;14.612;2023-04-09T03:33:28;3.30;;;1.33;;
21901;SDS011;11115;46.038;14.612;2023-04-09T03:35:59;1.47;;;1.30;;
21901;SDS011;11115;46.038;14.612;2023-04-09T03:39:03;9.10;;;1.90;;
21901;SDS011;11115;46.038;14.612;2023-04-09T03:41:41;2.97;;;1.70;;
21901;SDS011;11115;46.038;14.612;2023-04-09T03:44:16;1.70;;;1.60;;
21901;SDS011;11115;46.038;14.612;2023-04-09T03:47:09;2.63;;;1.53;;
21901;SDS011;11115;46.038;14.612;2023-04-09T03:49:50;1.57;;;1.40;;
21901;SDS011;11115;46.038;14.612;2023-04-09T03:52:24;2.27;;;1.43;;
21901;SDS011;11115;46.038;14.612;2023-04-09T03:55:15;2.43;;;1.37;;
21901;SDS011;11115;46.038;14.612;2023-04-09T03:57:44;2.37;;;1.63;;
21901;SDS011;11115;46.038;14.612;2023-04-09T04:00:19;2.60;;;1.27;;
21901;SDS011;11115;46.038;14.612;2023-04-09T04:03:17;3.03;;;1.47;;
21901;SDS011;11115;46.038;14.612;2023-04-09T04:06:07;2.75;;;2.05;;
21901;SDS011;11115;46.038;14.612;2023-04-09T04:08:51;2.67;;;1.60;;
21901;SDS011;11115;46.038;14.612;2023-04-09T04:11:31;1.63;;;1.40;;
21901;SDS011;11115;46.038;14.612;2023-04-09T04:14:03;2.80;;;2.03;;
21901;SDS011;11115;46.038;14.612;2023-04-09T04:16:46;3.73;;;1.60;;
21901;SDS011;11115;46.038;14.612;2023-04-09T04:19:27;2.97;;;1.73;;
21901;SDS011;11115;46.038;14.612;2023-04-09T04:22:04;9.83;;;6.10;;
21901;SDS011;11115;46.038;14.612;2023-04-09T04:24:40;3.23;;;2.37;;
21901;SDS011;11115;46.038;14.612;2023-04-09T04:27:16;2.07;;;1.57;;
21901;SDS011;11115;46.038;14.612;2023-04-09T04:29:47;4.03;;;1.90;;
21901;SDS011;11115;46.038;14.612;2023-04-09T04:32:43;6.20;;;2.20;;
21901;SDS011;11115;46.038;14.612;2023-04-09T04:35:17;1.63;;;1.40;;
21901;SDS011;11115;46.038;14.612;2023-04-09T04:37:52;2.97;;;1.50;;
21901;SDS011;11115;46.038;14.612;2023-04-09T04:40:43;2.50;;;1.50;;
21901;SDS011;11115;46.038;14.612;2023-04-09T04:43:16;2.40;;;1.73;;
21901;SDS011;11115;46.038;14.612;2023-04-09T04:45:50;2.70;;;1.47;;
21901;SDS011;11115;46.038;14.612;2023-04-09T04:48:27;3.57;;;1.57;;
21901;SDS011;11115;46.038;14.612;2023-04-09T04:50:59;2.50;;;1.88;;
21901;SDS011;11115;46.038;14.612;2023-04-09T04:53:37;3.00;;;1.73;;
21901;SDS011;11115;46.038;14.612;2023-04-09T04:56:13;1.93;;;1.50;;
21901;SDS011;11115;46.038;14.612;2023-04-09T04:58:54;2.33;;;1.63;;
21901;SDS011;11115;46.038;14.612;2023-04-09T05:01:28;9.40;;;2.30;;
21901;SDS011;11115;46.038;14.612;2023-04-09T05:04:01;15.93;;;4.50;;
21901;SDS011;11115;46.038;14.612;2023-04-09T05:06:34;11.17;;;4.60;;
21901;SDS011;11115;46.038;14.612;2023-04-09T05:09:08;10.17;;;4.03;;
21901;SDS011;11115;46.038;14.612;2023-04-09T05:11:56;9.27;;;4.33;;
21901;SDS011;11115;46.038;14.612;2023-04-09T05:14:28;5.80;;;2.43;;
21901;SDS011;11115;46.038;14.612;2023-04-09T05:17:06;3.90;;;2.47;;
21901;SDS011;11115;46.038;14.612;2023-04-09T05:19:42;4.77;;;2.33;;
21901;SDS011;11115;46.038;14.612;2023-04-09T05:22:15;4.53;;;3.00;;
21901;SDS011;11115;46.038;14.612;2023-04-09T05:24:47;4.80;;;2.40;;
21901;SDS011;11115;46.038;14.612;2023-04-09T05:27:20;5.27;;;2.23;;
21901;SDS011;11115;46.038;14.612;2023-04-09T05:30:10;6.80;;;2.77;;
21901;SDS011;11115;46.038;14.612;2023-04-09T05:32:48;3.17;;;2.50;;
21901;SDS011;11115;46.038;14.612;2023-04-09T05:35:20;4.90;;;1.73;;
21901;SDS011;11115;46.038;14.612;2023-04-09T05:37:52;3.22;;;2.05;;
21901;SDS011;11115;46.038;14.612;2023-04-09T05:40:38;5.20;;;3.10;;
21901;SDS011;11115;46.038;14.612;2023-04-09T05:43:10;3.57;;;2.63;;
21901;SDS011;11115;46.038;14.612;2023-04-09T05:45:42;3.28;;;2.13;;
21901;SDS011;11115;46.038;14.612;2023-04-09T05:48:13;6.45;;;3.10;;
21901;SDS011;11115;46.038;14.612;2023-04-09T05:50:50;2.53;;;1.90;;
21901;SDS011;11115;46.038;14.612;2023-04-09T05:53:28;3.45;;;1.92;;
21901;SDS011;11115;46.038;14.612;2023-04-09T05:56:00;2.93;;;2.20;;
21901;SDS011;11115;46.038;14.612;2023-04-09T05:58:47;2.97;;;2.20;;
21901;SDS011;11115;46.038;14.612;2023-04-09T06:01:25;5.23;;;2.63;;
21901;SDS011;11115;46.038;14.612;2023-04-09T06:04:12;4.13;;;2.23;;
21901;SDS011;11115;46.038;14.612;2023-04-09T06:06:52;2.43;;;1.70;;
21901;SDS011;11115;46.038;14.612;2023-04-09T06:09:29;3.50;;;2.07;;
21901;SDS011;11115;46.038;14.612;2023-04-09T06:12:03;2.37;;;2.00;;
21901;SDS011;11115;46.038;14.612;2023-04-09T06:14:39;4.13;;;2.27;;
21901;SDS011;11115;46.038;14.612;2023-04-09T06:17:13;3.03;;;2.17;;
21901;SDS011;11115;46.038;14.612;2023-04-09T06:19:42;2.80;;;1.90;;
21901;SDS011;11115;46.038;14.612;2023-04-09T06:22:15;3.30;;;1.97;;
21901;SDS011;11115;46.038;14.612;2023-04-09T06:24:49;4.23;;;1.90;;
21901;SDS011;11115;46.038;14.612;2023-04-09T06:27:22;3.23;;;1.90;;
21901;SDS011;11115;46.038;14.612;2023-04-09T06:29:56;5.27;;;3.30;;
21901;SDS011;11115;46.038;14.612;2023-04-09T06:32:30;5.77;;;2.97;;
21901;SDS011;11115;46.038;14.612;2023-04-09T06:35:19;3.80;;;2.10;;
21901;SDS011;11115;46.038;14.612;2023-04-09T06:37:50;2.45;;;1.85;;
21901;SDS011;11115;46.038;14.612;2023-04-09T06:40:20;5.43;;;2.40;;
21901;SDS011;11115;46.038;14.612;2023-04-09T06:42:51;3.17;;;2.20;;
21901;SDS011;11115;46.038;14.612;2023-04-09T06:45:38;3.17;;;1.93;;
21901;SDS011;11115;46.038;14.612;2023-04-09T06:48:09;4.07;;;2.30;;
21901;SDS011;11115;46.038;14.612;2023-04-09T06:50:42;2.50;;;1.87;;
21901;SDS011;11115;46.038;14.612;2023-04-09T06:53:16;2.50;;;1.80;;
21901;SDS011;11115;46.038;14.612;2023-04-09T06:55:49;4.25;;;2.17;;
21901;SDS011;11115;46.038;14.612;2023-04-09T06:58:20;2.70;;;1.63;;
21901;SDS011;11115;46.038;14.612;2023-04-09T07:01:07;2.03;;;1.67;;
21901;SDS011;11115;46.038;14.612;2023-04-09T07:03:36;2.23;;;1.67;;
21901;SDS011;11115;46.038;14.612;2023-04-09T07:06:07;2.20;;;1.60;;
21901;SDS011;11115;46.038;14.612;2023-04-09T07:08:40;2.70;;;1.43;;
21901;SDS011;11115;46.038;14.612;2023-04-09T07:11:12;3.97;;;1.80;;
21901;SDS011;11115;46.038;14.612;2023-04-09T07:13:43;2.67;;;1.93;;
21901;SDS011;11115;46.038;14.612;2023-04-09T07:16:14;3.53;;;1.77;;
21901;SDS011;11115;46.038;14.612;2023-04-09T07:18:43;3.97;;;1.63;;
21901;SDS011;11115;46.038;14.612;2023-04-09T07:21:30;3.60;;;2.07;;
21901;SDS011;11115;46.038;14.612;2023-04-09T07:24:04;2.33;;;1.90;;
21901;SDS011;11115;46.038;14.612;2023-04-09T07:26:36;2.90;;;1.63;;
21901;SDS011;11115;46.038;14.612;2023-04-09T07:29:09;2.53;;;1.83;;
21901;SDS011;11115;46.038;14.612;2023-04-09T07:31:41;2.93;;;1.77;;
21901;SDS011;11115;46.038;14.612;2023-04-09T07:34:20;2.00;;;1.70;;
21901;SDS011;11115;46.038;14.612;2023-04-09T07:36:49;1.70;;;1.60;;
21901;SDS011;11115;46.038;14.612;2023-04-09T07:39:28;2.93;;;1.63;;
21901;SDS011;11115;46.038;14.612;2023-04-09T07:42:07;3.80;;;1.73;;
21901;SDS011;11115;46.038;14.612;2023-04-09T07:44:40;4.93;;;1.73;;
21901;SDS011;11115;46.038;14.612;2023-04-09T07:47:12;4.20;;;2.23;;
21901;SDS011;11115;46.038;14.612;2023-04-09T07:49:47;2.87;;;1.73;;
21901;SDS011;11115;46.038;14.612;2023-04-09T07:52:17;2.93;;;1.97;;
21901;SDS011;11115;46.038;14.612;2023-04-09T07:55:03;3.13;;;1.87;;
21901;SDS011;11115;46.038;14.612;2023-04-09T07:57:44;4.28;;;2.15;;
21901;SDS011;11115;46.038;14.612;2023-04-09T08:00:17;2.27;;;1.73;;
21901;SDS011;11115;46.038;14.612;2023-04-09T08:02:57;1.38;;;1.27;;
21901;SDS011;11115;46.038;14.612;2023-04-09T08:05:34;2.77;;;1.83;;
21901;SDS011;11115;46.038;14.612;2023-04-09T08:08:05;2.00;;;1.40;;
21901;SDS011;11115;46.038;14.612;2023-04-09T08:10:36;2.75;;;2.05;;
21901;SDS011;11115;46.038;14.612;2023-04-09T08:15:39;3.33;;;1.52;;
21901;SDS011;11115;46.038;14.612;2023-04-09T08:18:11;2.57;;;1.83;;
21901;SDS011;11115;46.038;14.612;2023-04-09T08:20:44;7.80;;;1.93;;
21901;SDS011;11115;46.038;14.612;2023-04-09T08:23:19;3.03;;;1.60;;
21901;SDS011;11115;46.038;14.612;2023-04-09T08:25:48;3.50;;;1.83;;
21901;SDS011;11115;46.038;14.612;2023-04-09T08:28:21;4.95;;;2.20;;
21901;SDS011;11115;46.038;14.612;2023-04-09T08:30:56;3.03;;;1.40;;
21901;SDS011;11115;46.038;14.612;2023-04-09T08:33:28;5.97;;;1.43;;
21901;SDS011;11115;46.038;14.612;2023-04-09T08:36:14;2.50;;;1.87;;
21901;SDS011;11115;46.038;14.612;2023-04-09T08:38:47;2.20;;;1.60;;
21901;SDS011;11115;46.038;14.612;2023-04-09T08:41:23;3.33;;;2.10;;
21901;SDS011;11115;46.038;14.612;2023-04-09T08:44:00;3.30;;;2.03;;
21901;SDS011;11115;46.038;14.612;2023-04-09T08:46:30;4.23;;;1.93;;
21901;SDS011;11115;46.038;14.612;2023-04-09T08:49:07;2.10;;;1.40;;
21901;SDS011;11115;46.038;14.612;2023-04-09T08:51:37;1.53;;;1.10;;
21901;SDS011;11115;46.038;14.612;2023-04-09T08:54:16;2.67;;;2.27;;
21901;SDS011;11115;46.038;14.612;2023-04-09T08:56:53;2.77;;;1.97;;
21901;SDS011;11115;46.038;14.612;2023-04-09T08:59:28;2.33;;;1.60;;
21901;SDS011;11115;46.038;14.612;2023-04-09T09:02:06;3.43;;;1.93;;
21901;SDS011;11115;46.038;14.612;2023-04-09T09:04:47;1.93;;;1.43;;
21901;SDS011;11115;46.038;14.612;2023-04-09T09:07:51;1.97;;;1.67;;
21901;SDS011;11115;46.038;14.612;2023-04-09T09:10:45;3.50;;;1.93;;
21901;SDS011;11115;46.038;14.612;2023-04-09T09:13:20;3.08;;;1.67;;
21901;SDS011;11115;46.038;14.612;2023-04-09T09:16:13;1.83;;;1.63;;
21901;SDS011;11115;46.038;14.612;2023-04-09T09:18:54;2.43;;;1.50;;
21901;SDS011;11115;46.038;14.612;2023-04-09T09:21:28;4.37;;;1.80;;
21901;SDS011;11115;46.038;14.612;2023-04-09T09:23:57;1.90;;;1.40;;
21901;SDS011;11115;46.038;14.612;2023-04-09T09:26:31;3.03;;;1.80;;
21901;SDS011;11115;46.038;14.612;2023-04-09T09:29:07;2.57;;;2.00;;
21901;SDS011;11115;46.038;14.612;2023-04-09T09:31:48;2.13;;;1.47;;
21901;SDS011;11115;46.038;14.612;2023-04-09T09:34:24;3.47;;;1.87;;
21901;SDS011;11115;46.038;14.612;2023-04-09T09:36:56;2.50;;;2.10;;
21901;SDS011;11115;46.038;14.612;2023-04-09T09:39:44;2.43;;;1.50;;
21901;SDS011;11115;46.038;14.612;2023-04-09T09:42:17;2.53;;;1.37;;
21901;SDS011;11115;46.038;14.612;2023-04-09T09:44:46;3.17;;;1.57;;
21901;SDS011;11115;46.038;14.612;2023-04-09T09:47:29;3.30;;;1.60;;
21901;SDS011;11115;46.038;14.612;2023-04-09T09:50:04;6.27;;;2.67;;
21901;SDS011;11115;46.038;14.612;2023-04-09T09:52:39;2.93;;;1.93;;
21901;SDS011;11115;46.038;14.612;2023-04-09T09:55:13;1.47;;;1.23;;
21901;SDS011;11115;46.038;14.612;2023-04-09T09:57:47;1.83;;;1.30;;
21901;SDS011;11115;46.038;14.612;2023-04-09T10:00:19;2.63;;;1.57;;
21901;SDS011;11115;46.038;14.612;2023-04-09T10:03:04;2.00;;;1.10;;
21901;SDS011;11115;46.038;14.612;2023-04-09T10:05:46;2.30;;;1.10;;
21901;SDS011;11115;46.038;14.612;2023-04-09T10:08:30;1.77;;;1.10;;
21901;SDS011;11115;46.038;14.612;2023-04-09T10:11:05;2.50;;;1.23;;
21901;SDS011;11115;46.038;14.612;2023-04-09T10:13:39;2.50;;;1.43;;
21901;SDS011;11115;46.038;14.612;2023-04-09T10:16:18;2.83;;;1.33;;
21901;SDS011;11115;46.038;14.612;2023-04-09T10:18:51;1.93;;;1.00;;
21901;SDS011;11115;46.038;14.612;2023-04-09T10:24:29;3.67;;;1.40;;
21901;SDS011;11115;46.038;14.612;2023-04-09T10:27:10;1.33;;;1.00;;
21901;SDS011;11115;46.038;14.612;2023-04-09T10:29:47;1.50;;;1.03;;
21901;SDS011;11115;46.038;14.612;2023-04-09T10:32:23;1.20;;;1.10;;
21901;SDS011;11115;46.038;14.612;2023-04-09T10:34:58;1.47;;;1.13;;
21901;SDS011;11115;46.038;14.612;2023-04-09T10:37:32;1.43;;;1.03;;
21901;SDS011;11115;46.038;14.612;2023-04-09T10:40:08;1.70;;;1.30;;
21901;SDS011;11115;46.038;14.612;2023-04-09T10:42:53;1.60;;;1.23;;
21901;SDS011;11115;46.038;14.612;2023-04-09T10:45:25;2.97;;;1.50;;
21901;SDS011;11115;46.038;14.612;2023-04-09T10:48:20;1.60;;;1.10;;
21901;SDS011;11115;46.038;14.612;2023-04-09T10:50:55;1.37;;;1.13;;
21901;SDS011;11115;46.038;14.612;2023-04-09T10:53:29;1.30;;;1.07;;
21901;SDS011;11115;46.038;14.612;2023-04-09T10:56:05;1.10;;;1.00;;
21901;SDS011;11115;46.038;14.612;2023-04-09T10:58:44;2.80;;;0.70;;
21901;SDS011;11115;46.038;14.612;2023-04-09T11:01:31;1.57;;;1.13;;
21901;SDS011;11115;46.038;14.612;2023-04-09T11:04:06;1.23;;;1.03;;
21901;SDS011;11115;46.038;14.612;2023-04-09T11:06:37;0.70;;;0.67;;
21901;SDS011;11115;46.038;14.612;2023-04-09T11:09:09;1.47;;;0.97;;
21901;SDS011;11115;46.038;14.612;2023-04-09T11:11:55;1.27;;;0.97;;
21901;SDS011;11115;46.038;14.612;2023-04-09T11:14:35;1.10;;;0.80;;
21901;SDS011;11115;46.038;14.612;2023-04-09T11:17:04;1.10;;;0.97;;
21901;SDS011;11115;46.038;14.612;2023-04-09T11:19:37;1.00;;;0.80;;
21901;SDS011;11115;46.038;14.612;2023-04-09T11:22:19;0.70;;;0.70;;
21901;SDS011;11115;46.038;14.612;2023-04-09T11:24:57;1.87;;;1.13;;
21901;SDS011;11115;46.038;14.612;2023-04-09T11:27:26;1.47;;;0.83;;
21901;SDS011;11115;46.038;14.612;2023-04-09T11:29:55;2.33;;;1.20;;
21901;SDS011;11115;46.038;14.612;2023-04-09T11:32:27;1.63;;;1.23;;
21901;SDS011;11115;46.038;14.612;2023-04-09T11:35:23;1.52;;;1.15;;
21901;SDS011;11115;46.038;14.612;2023-04-09T11:37:57;1.97;;;0.97;;
21901;SDS011;11115;46.038;14.612;2023-04-09T11:40:28;1.10;;;0.95;;
21901;SDS011;11115;46.038;14.612;2023-04-09T11:43:06;2.20;;;1.40;;
21901;SDS011;11115;46.038;14.612;2023-04-09T11:45:42;1.10;;;1.00;;
21901;SDS011;11115;46.038;14.612;2023-04-09T11:48:29;3.37;;;1.77;;
21901;SDS011;11115;46.038;14.612;2023-04-09T11:50:57;2.17;;;1.20;;
21901;SDS011;11115;46.038;14.612;2023-04-09T11:53:36;1.27;;;0.90;;
21901;SDS011;11115;46.038;14.612;2023-04-09T11:56:04;1.57;;;1.33;;
21901;SDS011;11115;46.038;14.612;2023-04-09T11:58:44;2.00;;;1.53;;
21901;SDS011;11115;46.038;14.612;2023-04-09T12:01:33;1.73;;;1.40;;
21901;SDS011;11115;46.038;14.612;2023-04-09T12:04:05;2.80;;;1.58;;
21901;SDS011;11115;46.038;14.612;2023-04-09T12:06:39;0.90;;;0.90;;
21901;SDS011;11115;46.038;14.612;2023-04-09T12:09:14;1.47;;;1.07;;
21901;SDS011;11115;46.038;14.612;2023-04-09T12:11:44;1.30;;;1.20;;
21901;SDS011;11115;46.038;14.612;2023-04-09T12:14:20;4.40;;;1.27;;
21901;SDS011;11115;46.038;14.612;2023-04-09T12:16:56;1.47;;;1.03;;
21901;SDS011;11115;46.038;14.612;2023-04-09T12:19:28;2.03;;;1.43;;
21901;SDS011;11115;46.038;14.612;2023-04-09T12:22:01;1.30;;;1.10;;
21901;SDS011;11115;46.038;14.612;2023-04-09T12:24:30;0.83;;;0.83;;
21901;SDS011;11115;46.038;14.612;2023-04-09T12:27:08;1.10;;;1.00;;
21901;SDS011;11115;46.038;14.612;2023-04-09T12:29:45;1.20;;;1.00;;
21901;SDS011;11115;46.038;14.612;2023-04-09T12:32:19;1.43;;;1.10;;
21901;SDS011;11115;46.038;14.612;2023-04-09T12:34:50;1.50;;;1.23;;
21901;SDS011;11115;46.038;14.612;2023-04-09T12:37:34;1.57;;;0.73;;
21901;SDS011;11115;46.038;14.612;2023-04-09T12:40:10;1.47;;;0.97;;
21901;SDS011;11115;46.038;14.612;2023-04-09T12:42:44;0.80;;;0.53;;
21901;SDS011;11115;46.038;14.612;2023-04-09T12:45:20;1.30;;;1.00;;
21901;SDS011;11115;46.038;14.612;2023-04-09T12:47:49;1.33;;;1.03;;
21901;SDS011;11115;46.038;14.612;2023-04-09T12:50:33;0.80;;;0.80;;
21901;SDS011;11115;46.038;14.612;2023-04-09T12:53:19;1.77;;;0.97;;
21901;SDS011;11115;46.038;14.612;2023-04-09T12:55:50;0.90;;;0.80;;
21901;SDS011;11115;46.038;14.612;2023-04-09T12:58:34;1.77;;;0.90;;
21901;SDS011;11115;46.038;14.612;2023-04-09T13:01:07;1.93;;;1.20;;
21901;SDS011;11115;46.038;14.612;2023-04-09T13:03:51;1.20;;;1.00;;
21901;SDS011;11115;46.038;14.612;2023-04-09T13:06:26;1.03;;;0.70;;
21901;SDS011;11115;46.038;14.612;2023-04-09T13:09:05;1.30;;;0.93;;
21901;SDS011;11115;46.038;14.612;2023-04-09T13:11:48;2.33;;;1.03;;
21901;SDS011;11115;46.038;14.612;2023-04-09T13:14:22;3.03;;;1.77;;
21901;SDS011;11115;46.038;14.612;2023-04-09T13:17:00;1.23;;;0.60;;
21901;SDS011;11115;46.038;14.612;2023-04-09T13:19:32;0.60;;;0.60;;
21901;SDS011;11115;46.038;14.612;2023-04-09T13:22:09;0.70;;;0.70;;
21901;SDS011;11115;46.038;14.612;2023-04-09T13:24:54;0.93;;;0.73;;
21901;SDS011;11115;46.038;14.612;2023-04-09T13:27:30;2.13;;;1.27;;
21901;SDS011;11115;46.038;14.612;2023-04-09T13:30:08;3.00;;;1.10;;
21901;SDS011;11115;46.038;14.612;2023-04-09T13:32:39;3.63;;;1.88;;
21901;SDS011;11115;46.038;14.612;2023-04-09T13:35:18;1.53;;;1.27;;
21901;SDS011;11115;46.038;14.612;2023-04-09T13:37:48;2.38;;;1.27;;
21901;SDS011;11115;46.038;14.612;2023-04-09T13:40:25;1.53;;;1.00;;
21901;SDS011;11115;46.038;14.612;2023-04-09T13:43:10;1.63;;;0.83;;
21901;SDS011;11115;46.038;14.612;2023-04-09T13:45:54;0.63;;;0.63;;
21901;SDS011;11115;46.038;14.612;2023-04-09T13:48:26;0.90;;;0.90;;
21901;SDS011;11115;46.038;14.612;2023-04-09T13:51:00;0.67;;;0.63;;
21901;SDS011;11115;46.038;14.612;2023-04-09T13:53:31;1.03;;;0.80;;
21901;SDS011;11115;46.038;14.612;2023-04-09T13:56:10;1.83;;;1.00;;
21901;SDS011;11115;46.038;14.612;2023-04-09T13:58:40;1.13;;;0.60;;
21901;SDS011;11115;46.038;14.612;2023-04-09T14:01:14;0.63;;;0.60;;
21901;SDS011;11115;46.038;14.612;2023-04-09T14:06:17;3.23;;;0.80;;
21901;SDS011;11115;46.038;14.612;2023-04-09T14:09:01;0.80;;;0.80;;
21901;SDS011;11115;46.038;14.612;2023-04-09T14:11:45;0.80;;;0.77;;
21901;SDS011;11115;46.038;14.612;2023-04-09T14:14:16;0.83;;;0.80;;
21901;SDS011;11115;46.038;14.612;2023-04-09T14:16:48;1.70;;;0.83;;
21901;SDS011;11115;46.038;14.612;2023-04-09T14:19:24;1.27;;;0.77;;
21901;SDS011;11115;46.038;14.612;2023-04-09T14:24:25;1.20;;;0.73;;
21901;SDS011;11115;46.038;14.612;2023-04-09T14:27:10;0.73;;;0.60;;
21901;SDS011;11115;46.038;14.612;2023-04-09T14:29:44;0.50;;;0.50;;
21901;SDS011;11115;46.038;14.612;2023-04-09T14:32:36;0.43;;;0.43;;
21901;SDS011;11115;46.038;14.612;2023-04-09T14:35:09;1.50;;;0.73;;
21901;SDS011;11115;46.038;14.612;2023-04-09T14:37:40;1.17;;;0.80;;
21901;SDS011;11115;46.038;14.612;2023-04-09T14:40:14;0.83;;;0.50;;
21901;SDS011;11115;46.038;14.612;2023-04-09T14:42:46;0.70;;;0.70;;
21901;SDS011;11115;46.038;14.612;2023-04-09T14:45:19;0.47;;;0.40;;
21901;SDS011;11115;46.038;14.612;2023-04-09T14:47:51;1.05;;;0.80;;
21901;SDS011;11115;46.038;14.612;2023-04-09T14:50:22;0.83;;;0.60;;
21901;SDS011;11115;46.038;14.612;2023-04-09T14:52:55;0.80;;;0.73;;
21901;SDS011;11115;46.038;14.612;2023-04-09T14:55:28;1.40;;;0.87;;
21901;SDS011;11115;46.038;14.612;2023-04-09T14:58:13;1.37;;;0.90;;
21901;SDS011;11115;46.038;14.612;2023-04-09T15:00:43;0.37;;;0.37;;
21901;SDS011;11115;46.038;14.612;2023-04-09T15:03:16;0.60;;;0.60;;
21901;SDS011;11115;46.038;14.612;2023-04-09T15:05:47;1.08;;;0.80;;
21901;SDS011;11115;46.038;14.612;2023-04-09T15:08:22;0.52;;;0.52;;
21901;SDS011;11115;46.038;14.612;2023-04-09T15:10:55;0.77;;;0.50;;
21901;SDS011;11115;46.038;14.612;2023-04-09T15:16:04;1.00;;;0.40;;
21901;SDS011;11115;46.038;14.612;2023-04-09T15:21:12;0.40;;;0.40;;
21901;SDS011;11115;46.038;14.612;2023-04-09T15:23:59;0.57;;;0.57;;
21901;SDS011;11115;46.038;14.612;2023-04-09T15:26:29;1.23;;;0.65;;
21901;SDS011;11115;46.038;14.612;2023-04-09T15:29:06;0.80;;;0.60;;
21901;SDS011;11115;46.038;14.612;2023-04-09T15:31:37;0.50;;;0.50;;
21901;SDS011;11115;46.038;14.612;2023-04-09T15:36:45;0.50;;;0.50;;
21901;SDS011;11115;46.038;14.612;2023-04-09T15:39:20;0.60;;;0.60;;
21901;SDS011;11115;46.038;14.612;2023-04-09T15:42:06;0.80;;;0.77;;
21901;SDS011;11115;46.038;14.612;2023-04-09T15:44:40;0.30;;;0.30;;
21901;SDS011;11115;46.038;14.612;2023-04-09T15:47:18;0.45;;;0.45;;
21901;SDS011;11115;46.038;14.612;2023-04-09T15:49:48;2.50;;;0.47;;
21901;SDS011;11115;46.038;14.612;2023-04-09T15:52:43;1.20;;;0.80;;
21901;SDS011;11115;46.038;14.612;2023-04-09T15:55:17;0.63;;;0.43;;
21901;SDS011;11115;46.038;14.612;2023-04-09T15:58:00;0.47;;;0.40;;
21901;SDS011;11115;46.038;14.612;2023-04-09T16:00:32;0.68;;;0.55;;